createdAt,value
2018-08-24T00:00:50.633Z,21.20
2018-08-24T00:02:50.599Z,21.15
2018-08-24T00:04:49.873Z,21.11
2018-08-24T00:06:50.082Z,21.05
2018-08-24T00:08:50.259Z,21.03
2018-08-24T00:10:50.245Z,20.99
2018-08-24T00:12:50.249Z,20.97
2018-08-24T00:14:50.235Z,20.92
2018-08-24T00:16:50.424Z,20.87
2018-08-24T00:18:50.552Z,20.88
2018-08-24T00:20:50.528Z,20.84
2018-08-24T00:22:50.579Z,20.81
2018-08-24T00:24:50.592Z,20.79
2018-08-24T00:26:49.780Z,20.77
2018-08-24T00:28:49.787Z,20.68
2018-08-24T00:30:49.846Z,20.68
2018-08-24T00:32:49.931Z,20.68
2018-08-24T00:34:50.294Z,20.67
2018-08-24T00:36:50.551Z,20.67
2018-08-24T00:38:50.670Z,20.64
2018-08-24T00:40:49.725Z,20.61
2018-08-24T00:42:50.301Z,20.60
2018-08-24T00:44:50.381Z,20.62
2018-08-24T00:46:50.604Z,20.67
2018-08-24T00:48:49.698Z,20.72
2018-08-24T00:50:49.698Z,20.73
2018-08-24T00:52:49.835Z,20.73
2018-08-24T00:54:49.849Z,20.73
2018-08-24T00:56:50.014Z,20.74
2018-08-24T00:58:50.087Z,20.75
2018-08-24T01:00:50.138Z,20.79
2018-08-24T01:02:50.146Z,20.76
2018-08-24T01:04:50.433Z,20.75
2018-08-24T01:06:50.538Z,20.69
2018-08-24T01:08:50.594Z,20.66
2018-08-24T01:10:50.525Z,20.66
2018-08-24T01:12:50.541Z,20.68
2018-08-24T01:14:50.468Z,20.70
2018-08-24T01:16:50.667Z,20.68
2018-08-24T01:18:49.677Z,20.66
2018-08-24T01:20:49.734Z,20.66
2018-08-24T01:22:49.774Z,20.66
2018-08-24T01:24:49.719Z,20.67
2018-08-24T01:26:50.033Z,20.68
2018-08-24T01:28:50.053Z,20.64
2018-08-24T01:30:50.087Z,20.61
2018-08-24T01:32:50.130Z,20.59
2018-08-24T01:34:50.478Z,20.56
2018-08-24T01:36:50.042Z,20.56
2018-08-24T01:38:50.001Z,20.56
2018-08-24T01:40:49.942Z,20.56
2018-08-24T01:42:49.964Z,20.55
2018-08-24T01:44:49.925Z,20.55
2018-08-24T01:46:49.981Z,20.51
2018-08-24T01:48:49.940Z,20.49
2018-08-24T01:50:49.921Z,20.42
2018-08-24T01:52:49.942Z,20.40
2018-08-24T01:54:49.964Z,20.38
2018-08-24T01:56:50.196Z,20.32
2018-08-24T01:58:50.182Z,20.30
2018-08-24T02:00:50.199Z,20.27
2018-08-24T02:02:50.245Z,20.25
2018-08-24T02:04:50.569Z,20.13
2018-08-24T02:06:49.815Z,20.10
2018-08-24T02:08:49.739Z,20.02
2018-08-24T02:10:49.715Z,19.99
2018-08-24T02:12:50.648Z,19.97
2018-08-24T02:14:50.671Z,19.93
2018-08-24T02:16:49.845Z,19.92
2018-08-24T02:18:49.830Z,19.92
2018-08-24T02:20:49.885Z,19.90
2018-08-24T02:22:49.887Z,19.89
2018-08-24T02:24:49.840Z,19.88
2018-08-24T02:26:50.192Z,19.89
2018-08-24T02:28:50.119Z,19.92
2018-08-24T02:30:50.179Z,19.96
2018-08-24T02:32:50.216Z,19.96
2018-08-24T02:34:50.503Z,19.97
2018-08-24T02:36:49.693Z,19.97
2018-08-24T02:38:49.706Z,19.96
2018-08-24T02:40:49.785Z,19.94
2018-08-24T02:42:49.804Z,19.94
2018-08-24T02:44:49.864Z,19.92
2018-08-24T02:46:49.982Z,19.89
2018-08-24T02:48:50.091Z,19.86
2018-08-24T02:50:50.040Z,19.82
2018-08-24T02:52:50.008Z,19.76
2018-08-24T02:54:49.981Z,19.69
2018-08-24T02:56:50.253Z,19.64
2018-08-24T02:58:50.236Z,19.52
2018-08-24T03:00:50.205Z,19.46
2018-08-24T03:02:50.219Z,19.41
2018-08-24T03:04:50.452Z,19.35
2018-08-24T03:06:50.698Z,19.30
2018-08-24T03:08:49.777Z,19.21
2018-08-24T03:10:49.811Z,19.17
2018-08-24T03:12:49.821Z,19.13
2018-08-24T03:14:49.850Z,19.08
2018-08-24T03:16:50.107Z,19.04
2018-08-24T03:18:50.291Z,19.02
2018-08-24T03:20:50.259Z,19.03
2018-08-24T03:22:50.264Z,19.04
2018-08-24T03:24:50.302Z,19.06
2018-08-24T03:26:50.484Z,19.06
2018-08-24T03:28:50.615Z,19.11
2018-08-24T03:30:50.590Z,19.11
2018-08-24T03:32:50.635Z,19.11
2018-08-24T03:34:50.027Z,19.10
2018-08-24T03:36:50.170Z,19.11
2018-08-24T03:38:50.092Z,19.11
2018-08-24T03:40:50.025Z,19.06
2018-08-24T03:42:49.994Z,19.03
2018-08-24T03:44:50.007Z,19.03
2018-08-24T03:46:50.180Z,19.03
2018-08-24T03:48:50.157Z,19.03
2018-08-24T03:50:50.145Z,19.03
2018-08-24T03:52:50.669Z,19.03
2018-08-24T03:54:49.814Z,19.07
2018-08-24T03:56:50.099Z,19.10
2018-08-24T03:58:50.182Z,19.12
2018-08-24T04:00:50.228Z,19.14
2018-08-24T04:02:50.233Z,19.16
2018-08-24T04:04:50.654Z,19.20
2018-08-24T04:06:49.881Z,19.20
2018-08-24T04:08:49.890Z,19.16
2018-08-24T04:10:49.970Z,19.11
2018-08-24T04:12:50.322Z,19.06
2018-08-24T04:14:50.431Z,19.04
2018-08-24T04:16:50.579Z,19.04
2018-08-24T04:18:50.510Z,19.03
2018-08-24T04:20:50.541Z,19.07
2018-08-24T04:22:50.488Z,19.12
2018-08-24T04:24:50.433Z,19.18
2018-08-24T04:26:50.312Z,19.22
2018-08-24T04:28:50.329Z,19.30
2018-08-24T04:30:50.276Z,19.32
2018-08-24T04:32:50.346Z,19.34
2018-08-24T04:34:50.042Z,19.34
2018-08-24T04:36:50.212Z,19.36
2018-08-24T04:38:50.187Z,19.41
2018-08-24T04:40:50.165Z,19.44
2018-08-24T04:42:50.169Z,19.44
2018-08-24T04:44:50.123Z,19.43
2018-08-24T04:46:50.313Z,19.40
2018-08-24T04:48:50.314Z,19.37
2018-08-24T04:50:50.292Z,19.39
2018-08-24T04:52:50.314Z,19.43
2018-08-24T04:54:50.291Z,19.39
2018-08-24T04:56:50.423Z,19.35
2018-08-24T04:58:50.394Z,19.38
2018-08-24T05:00:50.488Z,19.36
2018-08-24T05:02:50.436Z,19.39
2018-08-24T05:04:49.832Z,19.44
2018-08-24T05:06:50.084Z,19.52
2018-08-24T05:08:50.068Z,19.55
2018-08-24T05:10:50.080Z,19.59
2018-08-24T05:12:50.168Z,19.59
2018-08-24T05:14:50.165Z,19.62
2018-08-24T05:16:50.306Z,19.64
2018-08-24T05:18:50.307Z,19.69
2018-08-24T05:20:50.312Z,19.69
2018-08-24T05:22:50.371Z,19.86
2018-08-24T05:24:50.813Z,19.95
2018-08-24T05:26:50.277Z,20.10
2018-08-24T05:28:50.326Z,20.18
2018-08-24T05:30:50.329Z,20.20
2018-08-24T05:32:50.350Z,20.23
2018-08-24T05:34:50.593Z,20.26
2018-08-24T05:36:50.402Z,20.24
2018-08-24T05:38:50.391Z,20.19
2018-08-24T05:40:50.410Z,20.16
2018-08-24T05:42:50.398Z,20.19
2018-08-24T05:44:50.410Z,20.21
2018-08-24T05:46:50.586Z,20.27
2018-08-24T05:48:50.087Z,20.35
2018-08-24T05:50:50.244Z,20.47
2018-08-24T05:52:50.198Z,20.57
2018-08-24T05:54:50.193Z,20.63
2018-08-24T05:56:50.302Z,20.62
2018-08-24T05:58:50.481Z,20.62
2018-08-24T06:00:50.467Z,20.59
2018-08-24T06:02:50.567Z,20.60
2018-08-24T06:04:49.863Z,20.68
2018-08-24T06:06:49.986Z,20.73
2018-08-24T06:08:50.003Z,20.87
2018-08-24T06:10:50.006Z,20.95
2018-08-24T06:12:50.015Z,21.06
2018-08-24T06:14:49.952Z,21.05
2018-08-24T06:16:50.504Z,21.10
2018-08-24T06:18:49.705Z,21.07
2018-08-24T06:20:49.706Z,21.20
2018-08-24T06:22:49.825Z,21.33
2018-08-24T06:24:49.917Z,21.31
2018-08-24T06:26:50.284Z,21.33
2018-08-24T06:28:50.414Z,21.35
2018-08-24T06:30:50.480Z,21.30
2018-08-24T06:32:50.209Z,21.23
2018-08-24T06:34:50.601Z,21.06
2018-08-24T06:36:49.958Z,21.09
2018-08-24T06:38:50.117Z,21.13
2018-08-24T06:40:50.086Z,21.11
2018-08-24T06:42:50.177Z,21.01
2018-08-24T06:44:50.065Z,20.86
2018-08-24T06:46:50.602Z,20.80
2018-08-24T06:48:50.154Z,20.62
2018-08-24T06:50:49.745Z,20.64
2018-08-24T06:52:50.039Z,20.67
2018-08-24T06:54:50.356Z,20.69
2018-08-24T06:56:50.076Z,20.66
2018-08-24T06:58:50.115Z,20.77
2018-08-24T07:00:50.318Z,20.92
2018-08-24T07:02:49.801Z,21.03
2018-08-24T07:04:50.093Z,21.10
2018-08-24T07:06:50.515Z,21.06
2018-08-24T07:08:49.716Z,21.09
2018-08-24T07:10:49.819Z,21.11
2018-08-24T07:12:50.167Z,21.17
2018-08-24T07:14:50.337Z,21.17
2018-08-24T07:16:50.446Z,21.13
2018-08-24T07:18:50.440Z,21.16
2018-08-24T07:20:50.664Z,21.21
2018-08-24T07:22:49.908Z,21.22
2018-08-24T07:24:49.889Z,21.20
2018-08-24T07:26:50.090Z,21.28
2018-08-24T07:28:50.074Z,21.49
2018-08-24T07:30:50.078Z,21.58
2018-08-24T07:32:50.104Z,21.79
2018-08-24T07:34:50.541Z,21.86
2018-08-24T07:36:49.764Z,21.97
2018-08-24T07:38:49.783Z,22.08
2018-08-24T07:40:49.972Z,21.81
2018-08-24T07:42:49.932Z,21.77
2018-08-24T07:44:50.069Z,21.82
2018-08-24T07:46:50.293Z,21.96
2018-08-24T07:48:50.410Z,22.09
2018-08-24T07:50:51.175Z,22.41
2018-08-24T07:52:50.375Z,22.6
2018-08-24T07:54:50.606Z,22.9
2018-08-24T07:56:49.995Z,22.66
2018-08-24T07:58:50.251Z,22.65
2018-08-24T08:00:50.388Z,22.55
2018-08-24T08:02:50.423Z,22.55
2018-08-24T08:04:49.797Z,22.73
2018-08-24T08:06:49.980Z,22.83
2018-08-24T08:08:49.899Z,22.69
2018-08-24T08:10:49.969Z,22.66
2018-08-24T08:12:50.051Z,22.58
2018-08-24T08:14:50.216Z,22.69
2018-08-24T08:16:50.621Z,23.03
2018-08-24T08:18:49.866Z,23.2
2018-08-24T08:20:50.059Z,23.30
2018-08-24T08:22:50.045Z,23.37
2018-08-24T08:24:50.594Z,23.4
2018-08-24T08:26:50.012Z,23.4
2018-08-24T08:28:50.057Z,23.49
2018-08-24T08:30:50.290Z,23.6
2018-08-24T08:32:50.505Z,23.54
2018-08-24T08:34:50.507Z,23.66
2018-08-24T08:36:50.556Z,23.76
2018-08-24T08:38:50.982Z,23.80
2018-08-24T08:40:50.232Z,23.86
2018-08-24T08:42:50.404Z,23.84
2018-08-24T08:44:50.608Z,23.79
2018-08-24T08:46:49.873Z,23.55
2018-08-24T08:48:50.090Z,23.55
2018-08-24T08:50:50.210Z,23.42
2018-08-24T08:52:50.386Z,23.48
2018-08-24T08:54:50.527Z,23.45
2018-08-24T08:56:49.923Z,23.45
2018-08-24T08:58:50.116Z,23.54
2018-08-24T09:00:50.316Z,23.70
2018-08-24T09:02:50.390Z,23.72
2018-08-24T09:04:50.604Z,23.66
2018-08-24T09:06:50.706Z,23.85
2018-08-24T09:08:49.948Z,24.11
2018-08-24T09:10:50.083Z,24.45
2018-08-24T09:12:50.445Z,24.5
2018-08-24T09:14:50.673Z,24.6
2018-08-24T09:16:50.078Z,24.9
2018-08-24T09:18:50.222Z,25.0
2018-08-24T09:20:50.377Z,25.0
2018-08-24T09:22:50.704Z,25.1
2018-08-24T09:24:49.689Z,25.09
2018-08-24T09:26:49.859Z,24.50
2018-08-24T09:28:50.664Z,24.14
2018-08-24T09:30:50.816Z,23.76
2018-08-24T09:32:50.582Z,24.09
2018-08-24T09:34:50.678Z,24.65
2018-08-24T09:36:50.154Z,24.96
2018-08-24T09:38:50.297Z,25.1
2018-08-24T09:40:50.474Z,25.20
2018-08-24T09:42:50.416Z,25.12
2018-08-24T09:44:50.612Z,25.21
2018-08-24T09:46:49.946Z,25.19
2018-08-24T09:48:50.082Z,25.02
2018-08-24T09:50:50.205Z,24.85
2018-08-24T09:52:50.314Z,25.24
2018-08-24T09:54:50.529Z,25.5
2018-08-24T09:56:50.223Z,25.7
2018-08-24T09:58:50.656Z,25.8
2018-08-24T10:00:50.059Z,25.9
2018-08-24T10:02:50.871Z,25.9
2018-08-24T10:04:50.597Z,26.0
2018-08-24T10:06:51.011Z,26.1
2018-08-24T10:08:50.530Z,26.2
2018-08-24T10:10:50.462Z,25.96
2018-08-24T10:12:50.644Z,25.75
2018-08-24T10:14:50.850Z,25.89
2018-08-24T10:16:50.415Z,25.76
2018-08-24T10:18:50.591Z,25.78
2018-08-24T10:20:50.791Z,25.40
2018-08-24T10:22:50.007Z,25.11
2018-08-24T10:24:50.167Z,24.83
2018-08-24T10:26:50.439Z,24.76
2018-08-24T10:28:50.626Z,24.61
2018-08-24T10:30:50.704Z,24.26
2018-08-24T10:32:49.941Z,24.26
2018-08-24T10:34:50.574Z,24.62
2018-08-24T10:36:50.016Z,24.90
2018-08-24T10:38:50.321Z,25.43
2018-08-24T10:40:51.338Z,25.44
2018-08-24T10:42:50.653Z,25.6
2018-08-24T10:44:50.774Z,25.6
2018-08-24T10:46:50.173Z,25.6
2018-08-24T10:48:50.338Z,25.6
2018-08-24T10:50:50.520Z,25.7
2018-08-24T10:52:50.635Z,25.7
2018-08-24T10:54:51.398Z,25.8
2018-08-24T10:56:49.991Z,25.8
2018-08-24T10:58:50.185Z,25.8
2018-08-24T11:00:50.515Z,26.0
2018-08-24T11:02:50.631Z,26.0
2018-08-24T11:04:50.218Z,26.0
2018-08-24T11:06:50.547Z,26.1
2018-08-24T11:08:50.680Z,26.2
2018-08-24T11:10:50.865Z,26.2
2018-08-24T11:12:50.112Z,26.4
2018-08-24T11:14:50.198Z,26.4
2018-08-24T11:16:50.931Z,26.4
2018-08-24T11:18:50.296Z,26.4
2018-08-24T11:20:50.499Z,26.4
2018-08-24T11:22:50.685Z,26.5
2018-08-24T11:24:49.883Z,26.7
2018-08-24T11:26:50.977Z,26.7
2018-08-24T11:28:50.286Z,26.7
2018-08-24T11:30:50.500Z,26.7
2018-08-24T11:32:50.661Z,26.8
2018-08-24T11:34:50.227Z,26.8
2018-08-24T11:36:50.501Z,26.8
2018-08-24T11:38:50.721Z,26.9
2018-08-24T11:40:50.037Z,26.9
2018-08-24T11:42:50.384Z,26.8
2018-08-24T11:44:50.608Z,26.73
2018-08-24T11:46:50.080Z,25.85
2018-08-24T11:48:50.348Z,25.75
2018-08-24T11:50:50.528Z,26.33
2018-08-24T11:52:50.015Z,26.50
2018-08-24T11:54:50.269Z,25.98
2018-08-24T11:56:50.623Z,25.70
2018-08-24T11:58:50.764Z,25.63
2018-08-24T12:00:50.095Z,26.24
2018-08-24T12:02:50.568Z,26.5
2018-08-24T12:04:50.890Z,26.5
2018-08-24T12:06:50.281Z,26.4
2018-08-24T12:08:50.456Z,26.4
2018-08-24T12:10:50.740Z,26.4
2018-08-24T12:12:49.997Z,26.4
2018-08-24T12:14:50.193Z,26.5
2018-08-24T12:16:50.695Z,26.4
2018-08-24T12:18:50.434Z,26.6
2018-08-24T12:20:51.041Z,26.6
2018-08-24T12:22:50.483Z,26.6
2018-08-24T12:24:50.823Z,26.12
2018-08-24T12:26:50.254Z,25.85
2018-08-24T12:28:50.404Z,25.55
2018-08-24T12:30:50.780Z,25.10
2018-08-24T12:32:50.067Z,24.72
2018-08-24T12:34:51.224Z,24.21
2018-08-24T12:36:49.946Z,24.97
2018-08-24T12:38:50.153Z,25.7
2018-08-24T12:40:50.340Z,25.7
2018-08-24T12:42:50.533Z,25.6
2018-08-24T12:44:50.830Z,25.6
2018-08-24T12:46:50.870Z,25.5
2018-08-24T12:48:50.314Z,25.4
2018-08-24T12:50:50.197Z,25.05
2018-08-24T12:52:50.505Z,24.63
2018-08-24T12:54:50.460Z,24.55
2018-08-24T12:56:50.121Z,25.1
2018-08-24T12:58:50.136Z,25.1
2018-08-24T13:00:50.161Z,25.2
2018-08-24T13:02:50.324Z,25.2
2018-08-24T13:04:50.468Z,25.1
2018-08-24T13:06:50.170Z,24.96
2018-08-24T13:08:50.803Z,24.56
2018-08-24T13:10:50.333Z,24.67
2018-08-24T13:12:50.492Z,24.77
2018-08-24T13:14:50.696Z,24.11
2018-08-24T13:16:50.037Z,23.98
2018-08-24T13:18:50.262Z,23.69
2018-08-24T13:20:50.524Z,23.62
2018-08-24T13:22:50.727Z,23.23
2018-08-24T13:24:49.963Z,23.07
2018-08-24T13:26:50.577Z,23.04
2018-08-24T13:28:50.232Z,23.00
2018-08-24T13:30:50.411Z,22.97
2018-08-24T13:32:50.586Z,22.78
2018-08-24T13:34:50.038Z,22.67
2018-08-24T13:36:50.465Z,22.67
2018-08-24T13:38:50.680Z,22.46
2018-08-24T13:40:50.183Z,22.24
2018-08-24T13:42:50.414Z,22.05
2018-08-24T13:44:50.628Z,21.64
2018-08-24T13:46:49.796Z,21.43
2018-08-24T13:48:49.778Z,21.37
2018-08-24T13:50:49.847Z,21.37
2018-08-24T13:52:50.041Z,21.41
2018-08-24T13:54:50.618Z,21.22
2018-08-24T13:56:50.093Z,21.08
2018-08-24T13:58:50.165Z,20.89
2018-08-24T14:00:50.171Z,20.87
2018-08-24T14:02:50.378Z,20.75
2018-08-24T14:04:49.776Z,20.75
2018-08-24T14:06:50.016Z,20.80
2018-08-24T14:08:49.944Z,20.75
2018-08-24T14:10:49.968Z,20.70
2018-08-24T14:12:49.959Z,20.42
2018-08-24T14:14:49.943Z,20.30
2018-08-24T14:16:50.062Z,20.25
2018-08-24T14:18:50.046Z,20.31
2018-08-24T14:20:50.503Z,20.41
2018-08-24T14:22:50.627Z,20.45
2018-08-24T14:24:50.689Z,20.27
2018-08-24T14:26:49.873Z,20.17
2018-08-24T14:28:49.963Z,20.15
2018-08-24T14:30:49.944Z,20.06
2018-08-24T14:32:49.902Z,20.09
2018-08-24T14:34:50.219Z,20.21
2018-08-24T14:36:50.390Z,20.26
2018-08-24T14:38:50.395Z,20.06
2018-08-24T14:40:50.439Z,20.15
2018-08-24T14:42:50.461Z,20.31
2018-08-24T14:44:50.418Z,20.32
2018-08-24T14:46:50.735Z,20.40
2018-08-24T14:48:49.903Z,20.82
2018-08-24T14:50:50.025Z,21.09
2018-08-24T14:52:50.235Z,21.3
2018-08-24T14:54:50.468Z,21.3
2018-08-24T14:56:50.859Z,21.4
2018-08-24T14:58:50.124Z,21.6
2018-08-24T15:00:50.312Z,21.6
2018-08-24T15:02:50.456Z,21.6
2018-08-24T15:04:49.829Z,21.52
2018-08-24T15:06:49.924Z,21.15
2018-08-24T15:08:49.888Z,21.15
2018-08-24T15:10:50.020Z,20.82
2018-08-24T15:12:50.031Z,20.75
2018-08-24T15:14:49.942Z,20.77
2018-08-24T15:16:50.239Z,20.64
2018-08-24T15:18:50.366Z,20.59
2018-08-24T15:20:50.362Z,20.37
2018-08-24T15:22:50.461Z,20.20
2018-08-24T15:24:50.454Z,20.12
2018-08-24T15:26:49.813Z,20.02
2018-08-24T15:28:49.864Z,19.88
2018-08-24T15:30:49.876Z,19.79
2018-08-24T15:32:49.998Z,19.76
2018-08-24T15:34:50.375Z,19.81
2018-08-24T15:36:50.547Z,19.81
2018-08-24T15:38:50.552Z,19.90
2018-08-24T15:40:50.563Z,19.90
2018-08-24T15:42:50.502Z,20.02
2018-08-24T15:44:50.693Z,20.07
2018-08-24T15:46:49.933Z,20.14
2018-08-24T15:48:49.958Z,20.11
2018-08-24T15:50:50.135Z,20.34
2018-08-24T15:52:50.326Z,20.65
2018-08-24T15:54:50.510Z,20.7
2018-08-24T15:56:50.854Z,20.66
2018-08-24T15:58:50.012Z,20.61
2018-08-24T16:00:50.191Z,20.45
2018-08-24T16:02:50.222Z,20.45
2018-08-24T16:04:50.516Z,20.41
2018-08-24T16:06:50.573Z,20.41
2018-08-24T16:08:50.665Z,20.35
2018-08-24T16:10:50.683Z,20.27
2018-08-24T16:12:50.675Z,20.14
2018-08-24T16:14:49.796Z,19.99
2018-08-24T16:16:50.129Z,19.94
2018-08-24T16:18:50.153Z,19.83
2018-08-24T16:20:50.167Z,19.83
2018-08-24T16:22:50.156Z,19.96
2018-08-24T16:24:50.127Z,19.96
2018-08-24T16:26:50.289Z,19.95
2018-08-24T16:28:50.241Z,19.85
2018-08-24T16:30:50.281Z,19.71
2018-08-24T16:32:50.335Z,19.70
2018-08-24T16:34:49.696Z,19.67
2018-08-24T16:36:50.155Z,19.68
2018-08-24T16:38:50.620Z,19.67
2018-08-24T16:40:49.799Z,19.71
2018-08-24T16:42:49.831Z,19.67
2018-08-24T16:44:49.885Z,19.58
2018-08-24T16:46:50.842Z,19.36
2018-08-24T16:48:50.016Z,19.33
2018-08-24T16:50:50.057Z,19.28
2018-08-24T16:52:50.084Z,19.26
2018-08-24T16:54:50.049Z,19.21
2018-08-24T16:56:50.204Z,19.10
2018-08-24T16:58:50.152Z,19.05
2018-08-24T17:00:50.194Z,19.03
2018-08-24T17:02:50.226Z,19.10
2018-08-24T17:04:50.591Z,19.25
2018-08-24T17:06:49.750Z,19.31
2018-08-24T17:08:49.801Z,19.31
2018-08-24T17:10:49.913Z,19.33
2018-08-24T17:12:50.267Z,19.24
2018-08-24T17:14:50.453Z,19.26
2018-08-24T17:16:50.579Z,19.31
2018-08-24T17:18:50.608Z,19.31
2018-08-24T17:20:50.599Z,19.33
2018-08-24T17:22:50.641Z,19.33
2018-08-24T17:24:50.676Z,19.38
2018-08-24T17:26:49.881Z,19.41
2018-08-24T17:28:49.972Z,19.34
2018-08-24T17:30:50.162Z,19.39
2018-08-24T17:32:50.245Z,19.51
2018-08-24T17:34:50.443Z,19.45
2018-08-24T17:36:49.850Z,19.45
2018-08-24T17:38:49.829Z,19.22
2018-08-24T17:40:49.937Z,19.22
2018-08-24T17:42:49.935Z,19.07
2018-08-24T17:44:49.912Z,19.02
2018-08-24T17:46:50.099Z,18.99
2018-08-24T17:48:50.095Z,18.86
2018-08-24T17:50:50.140Z,18.84
2018-08-24T17:52:50.167Z,18.82
2018-08-24T17:54:50.091Z,18.80
2018-08-24T17:56:50.264Z,18.71
2018-08-24T17:58:50.274Z,18.67
2018-08-24T18:00:50.251Z,18.64
2018-08-24T18:02:50.299Z,18.59
2018-08-24T18:04:50.621Z,18.55
2018-08-24T18:06:50.000Z,18.44
2018-08-24T18:08:50.040Z,18.40
2018-08-24T18:10:50.030Z,18.33
2018-08-24T18:12:50.083Z,18.28
2018-08-24T18:14:50.494Z,18.24
2018-08-24T18:16:49.915Z,18.22
2018-08-24T18:18:49.893Z,18.20
2018-08-24T18:20:50.050Z,18.19
2018-08-24T18:22:50.273Z,18.16
2018-08-24T18:24:50.243Z,18.16
2018-08-24T18:26:50.253Z,18.12
2018-08-24T18:28:50.339Z,18.10
2018-08-24T18:30:50.312Z,18.07
2018-08-24T18:32:50.247Z,18.08
2018-08-24T18:34:49.920Z,18.08
2018-08-24T18:36:50.348Z,18.08
2018-08-24T18:38:50.378Z,18.06
2018-08-24T18:40:50.380Z,18.03
2018-08-24T18:42:50.437Z,18.01
2018-08-24T18:44:50.399Z,18.01
2018-08-24T18:46:50.564Z,18.01
2018-08-24T18:48:50.596Z,17.98
2018-08-24T18:50:51.181Z,17.96
2018-08-24T18:52:50.485Z,17.95
2018-08-24T18:54:50.445Z,17.91
2018-08-24T18:56:50.639Z,17.91
2018-08-24T18:58:50.681Z,17.86
2018-08-24T19:00:50.653Z,17.82
2018-08-24T19:02:49.979Z,17.80
2018-08-24T19:04:50.356Z,17.79
2018-08-24T19:06:50.505Z,17.78
2018-08-24T19:08:49.708Z,17.75
2018-08-24T19:10:49.816Z,17.73
2018-08-24T19:12:49.746Z,17.72
2018-08-24T19:14:49.811Z,17.71
2018-08-24T19:16:50.108Z,17.71
2018-08-24T19:18:50.122Z,17.68
2018-08-24T19:20:50.700Z,17.67
2018-08-24T19:22:50.099Z,17.65
2018-08-24T19:24:50.086Z,17.64
2018-08-24T19:26:50.180Z,17.61
2018-08-24T19:28:50.155Z,17.59
2018-08-24T19:30:50.130Z,17.58
2018-08-24T19:32:50.196Z,17.55
2018-08-24T19:34:50.395Z,17.53
2018-08-24T19:36:50.631Z,17.48
2018-08-24T19:38:50.688Z,17.48
2018-08-24T19:40:50.685Z,17.47
2018-08-24T19:42:50.700Z,17.45
2018-08-24T19:44:49.712Z,17.43
2018-08-24T19:46:49.984Z,17.42
2018-08-24T19:48:49.963Z,17.42
2018-08-24T19:50:49.840Z,17.40
2018-08-24T19:52:49.893Z,17.38
2018-08-24T19:54:49.929Z,17.37
2018-08-24T19:56:50.033Z,17.37
2018-08-24T19:58:50.412Z,17.35
2018-08-24T20:00:50.255Z,17.33
2018-08-24T20:02:50.548Z,17.30
2018-08-24T20:04:49.816Z,17.29
2018-08-24T20:06:50.126Z,17.28
2018-08-24T20:08:50.158Z,17.28
2018-08-24T20:10:50.290Z,17.26
2018-08-24T20:12:50.243Z,17.26
2018-08-24T20:14:50.253Z,17.25
2018-08-24T20:16:50.344Z,17.28
2018-08-24T20:18:50.595Z,17.28
2018-08-24T20:20:50.647Z,17.29
2018-08-24T20:22:50.607Z,17.29
2018-08-24T20:24:49.821Z,17.29
2018-08-24T20:26:49.961Z,17.27
2018-08-24T20:28:49.996Z,17.26
2018-08-24T20:30:50.051Z,17.27
2018-08-24T20:32:50.141Z,17.30
2018-08-24T20:34:50.386Z,17.31
2018-08-24T20:36:50.523Z,17.30
2018-08-24T20:38:50.630Z,17.28
2018-08-24T20:40:50.672Z,17.26
2018-08-24T20:42:49.696Z,17.25
2018-08-24T20:44:49.823Z,17.25
2018-08-24T20:46:50.098Z,17.25
2018-08-24T20:48:50.179Z,17.25
2018-08-24T20:50:50.140Z,17.26
2018-08-24T20:52:50.161Z,17.26
2018-08-24T20:54:50.343Z,17.25
2018-08-24T20:56:50.686Z,17.26
2018-08-24T20:58:49.714Z,17.27
2018-08-24T21:00:49.708Z,17.28
2018-08-24T21:02:49.725Z,17.26
2018-08-24T21:04:50.256Z,17.22
2018-08-24T21:06:50.493Z,17.22
2018-08-24T21:08:50.481Z,17.36
2018-08-24T21:10:50.454Z,17.44
2018-08-24T21:12:50.556Z,17.47
2018-08-24T21:14:50.742Z,17.47
2018-08-24T21:16:50.403Z,17.45
2018-08-24T21:18:50.468Z,17.44
2018-08-24T21:20:50.502Z,17.61
2018-08-24T21:22:50.576Z,17.49
2018-08-24T21:24:50.534Z,17.47
2018-08-24T21:26:49.818Z,17.47
2018-08-24T21:28:49.815Z,17.38
2018-08-24T21:30:49.847Z,17.38
2018-08-24T21:32:49.898Z,17.38
2018-08-24T21:34:50.445Z,17.40
2018-08-24T21:36:49.750Z,17.45
2018-08-24T21:38:49.780Z,17.47
2018-08-24T21:40:49.898Z,17.46
2018-08-24T21:42:49.858Z,17.44
2018-08-24T21:44:49.878Z,17.38
2018-08-24T21:46:50.202Z,17.35
2018-08-24T21:48:50.229Z,17.32
2018-08-24T21:50:50.250Z,17.30
2018-08-24T21:52:50.234Z,17.28
2018-08-24T21:54:50.325Z,17.27
2018-08-24T21:56:50.425Z,17.26
2018-08-24T21:58:50.466Z,17.25
2018-08-24T22:00:50.599Z,17.25
2018-08-24T22:02:49.799Z,17.22
2018-08-24T22:04:50.156Z,17.22
2018-08-24T22:06:50.350Z,17.21
2018-08-24T22:08:50.274Z,17.17
2018-08-24T22:10:50.387Z,17.17
2018-08-24T22:12:50.502Z,17.17
2018-08-24T22:14:50.479Z,17.16
2018-08-24T22:16:51.215Z,17.16
2018-08-24T22:18:50.361Z,17.14
2018-08-24T22:20:50.552Z,17.15
2018-08-24T22:22:50.490Z,17.12
2018-08-24T22:24:50.608Z,17.11
2018-08-24T22:26:49.803Z,17.13
2018-08-24T22:28:49.845Z,17.15
2018-08-24T22:30:49.960Z,17.16
2018-08-24T22:32:49.883Z,17.13
2018-08-24T22:34:50.205Z,17.14
2018-08-24T22:36:50.439Z,17.13
2018-08-24T22:38:50.492Z,17.12
2018-08-24T22:40:50.436Z,17.08
2018-08-24T22:42:50.442Z,17.07
2018-08-24T22:44:50.409Z,17.06
2018-08-24T22:46:50.551Z,17.06
2018-08-24T22:48:50.577Z,17.07
2018-08-24T22:50:50.547Z,17.08
2018-08-24T22:52:50.634Z,17.07
2018-08-24T22:54:50.653Z,17.02
2018-08-24T22:56:49.870Z,16.99
2018-08-24T22:58:49.893Z,16.95
2018-08-24T23:00:49.962Z,16.93
2018-08-24T23:02:49.954Z,16.93
2018-08-24T23:04:50.177Z,16.90
2018-08-24T23:06:50.398Z,16.90
2018-08-24T23:08:50.370Z,16.92
2018-08-24T23:10:50.333Z,16.92
2018-08-24T23:12:50.307Z,16.91
2018-08-24T23:14:50.404Z,16.91
2018-08-24T23:16:50.450Z,16.84
2018-08-24T23:18:50.518Z,16.81
2018-08-24T23:20:50.503Z,16.80
2018-08-24T23:22:50.673Z,16.80
2018-08-24T23:24:49.754Z,16.77
2018-08-24T23:26:50.033Z,16.76
2018-08-24T23:28:50.003Z,16.76
2018-08-24T23:30:50.023Z,16.73
2018-08-24T23:32:50.032Z,16.71
2018-08-24T23:34:50.399Z,16.67
2018-08-24T23:36:50.576Z,16.67
2018-08-24T23:38:50.555Z,16.69
2018-08-24T23:40:50.514Z,16.68
2018-08-24T23:42:50.554Z,16.68
2018-08-24T23:44:49.723Z,16.68
2018-08-24T23:46:49.967Z,16.64
2018-08-24T23:48:49.925Z,16.60
2018-08-24T23:50:49.880Z,16.58
2018-08-24T23:52:49.938Z,16.57
2018-08-24T23:54:49.952Z,16.60
2018-08-24T23:56:50.031Z,16.59
2018-08-24T23:58:50.044Z,16.57
